الصفحة الرئيسية
METAR-TAF:

METAR-TAF

مطار :

مطار معيتيقة الدولي

طرابلس, ليبيا

دائرة عرض: 32-54N, خط طول: 13-17E, ارتفاع: 11 متر

مراقبة الطقس الحالي

تاريخ ووقت الإصدار 24 دقيقة قبل الساعة 00:55UTC
ريح 7 عقدة من الشرق/الجنوب الشرقي
درجة الحرارة 23°درجة مئوية
الرطوبة 73%
ضغط 1013 hPa
الرؤية: 7000 متر
سماء صافية

METAR: HLLM 170055Z 12007KT 7000 SKC 23/18 Q1013

زمن: 03:19 (01:19 UTC)

توقعات

تاريخ ووقت الإصدار 8ساعات و 19 دقيقة قبل الساعة 17:00UTC
التوقعات صالحة من16 الساعة 18 UTC إلى 17 الساعة 18 UTC
ريح 12 عقدة من الشرق/الجنوب الشرقي
الرؤية: 8000 متر

TAF: HLLM 161700Z 1618/1718 06012KT 8000 NSC BECMG1702/1704 12012KT

أرصاد الطقس والتوقعات من أكثر من 4000 مطار (تقارير الطقس للمطار METAR والتنبؤ بالطقس بالمطارTAF).

المحطات المتاحة هي النقط الصفراء والحمراء على الخريطة.

حرك المؤشر فوق النقطة لمعرفة اسم المحطة.

ثم انقر لمعرفة أرصاد وتوقعات الطقس.

لتغيير الخارطة: اضغط على الأزرار الخضراء مع رمز الصليب الأسود للتكبير. على الزر الأخضر مع شرطة للتصغير، أو على الأسهم الخضراء للخرائط المجاورة.


METAR-TAF: